createdAt,value
2018-05-23T00:01:09.707Z,88.56
2018-05-23T00:03:38.519Z,88.70
2018-05-23T00:06:07.275Z,89.15
2018-05-23T00:08:36.165Z,89.01
2018-05-23T00:11:05.363Z,88.92
2018-05-23T00:13:34.968Z,88.56
2018-05-23T00:16:03.772Z,88.73
2018-05-23T00:18:32.645Z,89.09
2018-05-23T00:21:01.406Z,89.20
2018-05-23T00:23:30.324Z,88.91
2018-05-23T00:25:59.114Z,88.97
2018-05-23T00:28:28.282Z,89.32
2018-05-23T00:30:57.017Z,89.36
2018-05-23T00:33:27.459Z,89.33
2018-05-23T00:35:56.819Z,89.62
2018-05-23T00:38:25.684Z,89.29
2018-05-23T00:40:55.113Z,89.28
2018-05-23T00:43:23.919Z,89.02
2018-05-23T00:45:52.586Z,88.81
2018-05-23T00:48:21.343Z,88.73
2018-05-23T00:50:50.160Z,88.41
2018-05-23T00:53:19.027Z,88.12
2018-05-23T00:55:48.315Z,87.64
2018-05-23T00:58:17.135Z,87.50
2018-05-23T01:00:45.925Z,87.36
2018-05-23T01:03:14.766Z,87.30
2018-05-23T01:05:44.526Z,87.45
2018-05-23T01:08:13.310Z,87.59
2018-05-23T01:10:41.995Z,88.00
2018-05-23T01:13:10.783Z,88.22
2018-05-23T01:15:39.552Z,87.93
2018-05-23T01:18:08.357Z,88.07
2018-05-23T01:20:37.043Z,88.43
2018-05-23T01:23:05.780Z,88.25
2018-05-23T01:25:34.937Z,88.67
2018-05-23T01:28:03.713Z,88.55
2018-05-23T01:30:32.513Z,88.53
2018-05-23T01:33:01.286Z,87.84
2018-05-23T01:35:30.131Z,87.94
2018-05-23T01:37:58.968Z,87.53
2018-05-23T01:40:27.656Z,87.29
2018-05-23T01:42:56.387Z,87.29
2018-05-23T01:45:25.222Z,87.34
2018-05-23T01:47:54.017Z,86.82
2018-05-23T01:50:22.762Z,86.53
2018-05-23T01:52:51.599Z,86.25
2018-05-23T01:55:20.270Z,86.45
2018-05-23T01:57:49.059Z,86.83
2018-05-23T02:00:17.748Z,86.38
2018-05-23T02:02:46.530Z,86.39
2018-05-23T02:05:15.160Z,86.25
2018-05-23T02:07:44.003Z,86.00
2018-05-23T02:10:12.793Z,85.73
2018-05-23T02:12:41.665Z,85.25
2018-05-23T02:15:10.382Z,85.53
2018-05-23T02:17:39.051Z,85.83
2018-05-23T02:20:07.838Z,86.31
2018-05-23T02:22:36.629Z,86.44
2018-05-23T02:25:05.313Z,86.26
2018-05-23T02:27:34.098Z,85.88
2018-05-23T02:30:02.812Z,86.13
2018-05-23T02:32:31.671Z,86.47
2018-05-23T02:35:00.460Z,87.32
2018-05-23T02:37:29.158Z,86.80
2018-05-23T02:39:57.843Z,86.42
2018-05-23T02:42:26.619Z,86.92
2018-05-23T02:44:55.340Z,87.02
2018-05-23T02:47:24.193Z,86.82
2018-05-23T02:49:52.876Z,86.55
2018-05-23T02:52:21.565Z,86.66
2018-05-23T02:54:50.359Z,87.02
2018-05-23T02:57:19.241Z,86.66
2018-05-23T02:59:47.933Z,86.84
2018-05-23T03:02:16.612Z,86.23
2018-05-23T03:04:45.399Z,86.27
2018-05-23T03:07:14.186Z,86.65
2018-05-23T03:09:43.052Z,85.92
2018-05-23T03:12:11.863Z,85.51
2018-05-23T03:14:40.652Z,85.42
2018-05-23T03:17:09.438Z,85.78
2018-05-23T03:19:38.224Z,85.65
2018-05-23T03:22:07.082Z,85.32
2018-05-23T03:24:35.798Z,85.09
2018-05-23T03:27:04.492Z,84.83
2018-05-23T03:29:33.298Z,85.34
2018-05-23T03:32:02.058Z,85.18
2018-05-23T03:34:30.848Z,84.50
2018-05-23T03:36:59.635Z,85.03
2018-05-23T03:39:28.422Z,84.14
2018-05-23T03:41:57.120Z,84.71
2018-05-23T03:44:25.918Z,84.22
2018-05-23T03:46:54.686Z,84.62
2018-05-23T03:49:23.473Z,84.69
2018-05-23T03:51:52.183Z,83.79
2018-05-23T03:54:20.944Z,83.67
2018-05-23T03:56:49.654Z,83.69
2018-05-23T03:59:18.518Z,83.81
2018-05-23T04:01:59.156Z,83.09
2018-05-23T04:04:39.553Z,83.45
2018-05-23T04:07:21.131Z,83.06
2018-05-23T04:09:49.882Z,82.62
2018-05-23T04:12:18.702Z,82.20
2018-05-23T04:14:47.569Z,82.44
2018-05-23T04:17:17.306Z,82.75
2018-05-23T04:19:46.091Z,83.19
2018-05-23T04:22:14.881Z,82.70
2018-05-23T04:24:43.768Z,81.79
2018-05-23T04:27:12.466Z,81.42
2018-05-23T04:29:41.346Z,81.19
2018-05-23T04:32:10.129Z,81.32
2018-05-23T04:34:38.914Z,80.23
2018-05-23T04:37:07.702Z,79.55
2018-05-23T04:39:36.491Z,78.86
2018-05-23T04:42:05.278Z,79.00
2018-05-23T04:44:34.067Z,78.08
2018-05-23T04:47:02.812Z,77.58
2018-05-23T04:49:32.170Z,77.12
2018-05-23T04:52:00.940Z,77.32
2018-05-23T04:54:29.659Z,76.85
2018-05-23T04:56:59.233Z,76.35
2018-05-23T04:59:27.921Z,76.10
2018-05-23T05:01:56.601Z,76.74
2018-05-23T05:04:25.395Z,76.27
2018-05-23T05:06:54.094Z,76.93
2018-05-23T05:09:22.862Z,77.30
2018-05-23T05:11:51.547Z,77.05
2018-05-23T05:14:20.344Z,76.89
2018-05-23T05:16:49.031Z,77.16
2018-05-23T05:19:17.810Z,76.58
2018-05-23T05:21:46.495Z,75.99
2018-05-23T05:24:15.180Z,76.06
2018-05-23T05:26:43.974Z,76.20
2018-05-23T05:29:12.752Z,75.89
2018-05-23T05:31:41.519Z,75.81
2018-05-23T05:34:10.327Z,76.00
2018-05-23T05:36:39.100Z,76.29
2018-05-23T05:39:07.900Z,76.44
2018-05-23T05:41:36.593Z,76.25
2018-05-23T05:44:05.373Z,75.83
2018-05-23T05:46:34.674Z,75.07
2018-05-23T05:49:03.466Z,75.26
2018-05-23T05:51:32.246Z,73.17
2018-05-23T05:54:00.952Z,72.73
2018-05-23T05:56:29.723Z,72.35
2018-05-23T05:58:58.612Z,71.42
2018-05-23T06:01:27.370Z,69.98
2018-05-23T06:03:56.187Z,69.21
2018-05-23T06:06:24.951Z,66.66
2018-05-23T06:08:53.762Z,64.99
2018-05-23T06:11:22.550Z,63.23
2018-05-23T06:13:51.302Z,62.79
2018-05-23T06:16:20.122Z,61.92
2018-05-23T06:18:48.912Z,60.71
2018-05-23T06:21:17.602Z,60.34
2018-05-23T06:23:46.297Z,59.12
2018-05-23T06:26:15.654Z,58.16
2018-05-23T06:28:44.377Z,58.45
2018-05-23T06:31:13.155Z,56.36
2018-05-23T06:33:41.948Z,51.31
2018-05-23T06:36:10.731Z,49.12
2018-05-23T06:38:39.531Z,46.49
2018-05-23T06:41:08.212Z,46.44
2018-05-23T06:43:37.007Z,45.51
2018-05-23T06:46:06.224Z,43.12
2018-05-23T06:48:34.975Z,40.50
2018-05-23T06:51:03.770Z,39.03
2018-05-23T06:53:32.547Z,39.46
2018-05-23T06:56:01.336Z,40.76
2018-05-23T06:58:30.125Z,39.06
2018-05-23T07:00:58.912Z,36.05
2018-05-23T07:03:27.804Z,34.68
2018-05-23T07:05:56.636Z,35.41
2018-05-23T07:08:25.373Z,34.99
2018-05-23T07:10:54.118Z,35.99
2018-05-23T07:13:22.855Z,39.55
2018-05-23T07:15:51.633Z,41.12
2018-05-23T07:18:20.526Z,41.69
2018-05-23T07:20:49.311Z,43.69
2018-05-23T07:23:18.609Z,45.39
2018-05-23T07:25:47.371Z,47.03
2018-05-23T07:28:16.190Z,48.91
2018-05-23T07:30:44.970Z,46.57
2018-05-23T07:33:13.862Z,43.93
2018-05-23T07:35:42.657Z,42.78
2018-05-23T07:38:11.441Z,39.43
2018-05-23T07:40:40.226Z,37.92
2018-05-23T07:43:09.013Z,35.29
2018-05-23T07:45:37.803Z,36.32
2018-05-23T07:48:06.489Z,35.01
2018-05-23T07:50:35.874Z,34.59
2018-05-23T07:53:04.776Z,34.26
2018-05-23T07:55:33.461Z,35.11
2018-05-23T07:58:02.250Z,35.86
2018-05-23T08:00:30.936Z,38.25
2018-05-23T08:02:59.634Z,36.78
2018-05-23T08:05:28.317Z,36.06
2018-05-23T08:07:57.102Z,35.71
2018-05-23T08:10:25.882Z,34.24
2018-05-23T08:12:54.872Z,34.66
2018-05-23T08:15:23.659Z,33.09
2018-05-23T08:17:52.549Z,32.92
2018-05-23T08:20:21.336Z,33.61
2018-05-23T08:22:50.124Z,31.22
2018-05-23T08:25:18.836Z,31.17
2018-05-23T08:27:47.702Z,31.03
2018-05-23T08:30:16.487Z,32.00
2018-05-23T08:32:45.174Z,31.17
2018-05-23T08:35:13.855Z,35.23
2018-05-23T08:37:42.645Z,32.12
2018-05-23T08:40:11.433Z,32.74
2018-05-23T08:42:40.217Z,32.07
2018-05-23T08:45:08.913Z,32.69
2018-05-23T08:47:37.662Z,31.91
2018-05-23T08:50:06.377Z,34.77
2018-05-23T08:52:35.081Z,34.54
2018-05-23T08:55:03.848Z,33.07
2018-05-23T08:57:32.534Z,32.77
2018-05-23T09:00:01.298Z,30.17
2018-05-23T09:02:30.209Z,30.51
2018-05-23T09:04:59.054Z,30.61
2018-05-23T09:07:27.888Z,31.47
2018-05-23T09:09:56.674Z,31.46
2018-05-23T09:12:25.455Z,32.54
2018-05-23T09:14:54.249Z,30.07
2018-05-23T09:17:22.880Z,32.41
2018-05-23T09:19:51.624Z,35.02
2018-05-23T09:22:20.405Z,32.86
2018-05-23T09:24:49.225Z,31.31
2018-05-23T09:27:17.878Z,31.85
2018-05-23T09:29:46.665Z,29.24
2018-05-23T09:32:15.463Z,29.49
2018-05-23T09:34:44.343Z,30.51
2018-05-23T09:37:13.047Z,31.40
2018-05-23T09:39:41.712Z,31.90
2018-05-23T09:42:10.484Z,31.64
2018-05-23T09:44:39.290Z,31.68
2018-05-23T09:47:07.989Z,29.90
2018-05-23T09:49:36.773Z,29.33
2018-05-23T09:52:05.467Z,29.79
2018-05-23T09:54:34.148Z,31.71
2018-05-23T09:57:02.918Z,30.31
2018-05-23T09:59:31.750Z,32.29
2018-05-23T10:02:00.447Z,29.30
2018-05-23T10:04:29.137Z,29.56
2018-05-23T10:06:57.975Z,29.80
2018-05-23T10:09:26.665Z,29.07
2018-05-23T10:11:55.444Z,28.89
2018-05-23T10:14:24.156Z,28.32
2018-05-23T10:16:52.810Z,29.04
2018-05-23T10:19:21.595Z,31.46
2018-05-23T10:21:50.432Z,29.10
2018-05-23T10:24:19.171Z,29.26
2018-05-23T10:26:48.019Z,29.84
2018-05-23T10:29:16.645Z,28.61
2018-05-23T10:31:45.433Z,28.76
2018-05-23T10:34:14.193Z,29.61
2018-05-23T10:36:42.884Z,30.45
2018-05-23T10:39:11.687Z,27.90
2018-05-23T10:41:40.478Z,28.45
2018-05-23T10:44:09.266Z,29.26
2018-05-23T10:46:38.052Z,30.80
2018-05-23T10:49:06.841Z,31.54
2018-05-23T10:51:35.599Z,31.94
2018-05-23T10:54:04.415Z,31.14
2018-05-23T10:56:33.167Z,31.68
2018-05-23T10:59:02.063Z,30.32
2018-05-23T11:01:30.777Z,30.99
2018-05-23T11:03:59.564Z,28.78
2018-05-23T11:06:28.457Z,30.61
2018-05-23T11:08:57.164Z,29.23
2018-05-23T11:11:25.825Z,30.52
2018-05-23T11:13:54.530Z,29.56
2018-05-23T11:16:23.235Z,30.69
2018-05-23T11:18:52.774Z,32.38
2018-05-23T11:21:21.587Z,32.15
2018-05-23T11:23:50.384Z,30.95
2018-05-23T11:26:19.598Z,32.04
2018-05-23T11:28:48.466Z,34.57
2018-05-23T11:31:17.349Z,35.07
2018-05-23T11:33:47.160Z,37.89
2018-05-23T11:36:16.407Z,39.39
2018-05-23T11:38:45.483Z,39.52
2018-05-23T11:41:14.342Z,40.76
2018-05-23T11:43:43.234Z,41.76
2018-05-23T11:46:12.121Z,41.91
2018-05-23T11:48:40.911Z,42.72
2018-05-23T11:51:09.737Z,41.34
2018-05-23T11:53:38.661Z,39.83
2018-05-23T11:56:07.476Z,39.43
2018-05-23T11:58:37.084Z,40.45
2018-05-23T12:01:05.874Z,39.46
2018-05-23T12:03:34.882Z,39.50
2018-05-23T12:06:03.723Z,40.90
2018-05-23T12:08:32.411Z,42.45
2018-05-23T12:11:01.327Z,43.52
2018-05-23T12:13:30.045Z,43.03
2018-05-23T12:15:58.863Z,43.25
2018-05-23T12:18:27.697Z,43.28
2018-05-23T12:20:56.579Z,43.44
2018-05-23T12:23:25.225Z,43.82
2018-05-23T12:25:54.066Z,44.32
2018-05-23T12:28:23.147Z,44.41
2018-05-23T12:30:51.966Z,44.43
2018-05-23T12:33:20.724Z,44.31
2018-05-23T12:35:49.659Z,43.90
2018-05-23T12:38:18.397Z,43.11
2018-05-23T12:40:47.084Z,43.03
2018-05-23T12:43:15.856Z,42.57
2018-05-23T12:45:44.863Z,43.62
2018-05-23T12:48:13.548Z,44.14
2018-05-23T12:50:42.437Z,44.39
2018-05-23T12:53:11.226Z,43.19
2018-05-23T12:55:40.073Z,43.41
2018-05-23T12:58:08.830Z,43.44
2018-05-23T13:00:37.589Z,43.60
2018-05-23T13:03:06.479Z,43.84
2018-05-23T13:05:35.277Z,43.68
2018-05-23T13:08:04.154Z,43.75
2018-05-23T13:10:33.048Z,43.92
2018-05-23T13:13:01.935Z,44.08
2018-05-23T13:15:30.620Z,44.27
2018-05-23T13:17:59.751Z,44.64
2018-05-23T13:20:28.434Z,45.34
2018-05-23T13:22:57.288Z,45.20
2018-05-23T13:25:27.412Z,45.23
2018-05-23T13:27:56.199Z,45.37
2018-05-23T13:30:24.983Z,45.98
2018-05-23T13:32:54.216Z,45.89
2018-05-23T13:35:23.187Z,46.56
2018-05-23T13:37:52.064Z,47.25
2018-05-23T13:40:20.843Z,47.13
2018-05-23T13:42:49.638Z,47.75
2018-05-23T13:45:18.527Z,47.65
2018-05-23T13:47:47.638Z,47.93
2018-05-23T13:50:16.513Z,48.30
2018-05-23T13:52:45.353Z,48.54
2018-05-23T13:55:14.138Z,48.65
2018-05-23T13:57:42.805Z,48.61
2018-05-23T14:00:11.604Z,49.15
2018-05-23T14:02:40.441Z,49.21
2018-05-23T14:05:09.441Z,49.49
2018-05-23T14:07:38.125Z,49.70
2018-05-23T14:10:06.913Z,49.95
2018-05-23T14:12:35.622Z,49.95
2018-05-23T14:15:04.708Z,50.45
2018-05-23T14:17:33.616Z,51.61
2018-05-23T14:20:02.881Z,51.67
2018-05-23T14:22:31.775Z,52.16
2018-05-23T14:25:01.449Z,52.50
2018-05-23T14:27:30.391Z,53.18
2018-05-23T14:29:59.262Z,52.75
2018-05-23T14:32:28.057Z,52.47
2018-05-23T14:34:56.943Z,52.13
2018-05-23T14:37:25.627Z,51.24
2018-05-23T14:39:54.322Z,50.18
2018-05-23T14:42:23.197Z,50.56
2018-05-23T14:44:51.914Z,51.72
2018-05-23T14:47:21.433Z,51.52
2018-05-23T14:49:50.382Z,51.57
2018-05-23T14:52:19.377Z,50.29
2018-05-23T14:54:48.159Z,50.75
2018-05-23T14:57:17.054Z,51.20
2018-05-23T14:59:46.603Z,52.05
2018-05-23T15:02:15.543Z,52.42
2018-05-23T15:04:44.331Z,52.67
2018-05-23T15:07:13.129Z,52.51
2018-05-23T15:09:41.914Z,51.20
2018-05-23T15:12:10.799Z,52.06
2018-05-23T15:14:39.488Z,51.72
2018-05-23T15:17:08.264Z,50.51
2018-05-23T15:19:37.296Z,51.13
2018-05-23T15:22:06.045Z,51.30
2018-05-23T15:24:35.052Z,51.34
2018-05-23T15:27:03.828Z,50.92
2018-05-23T15:29:32.665Z,50.99
2018-05-23T15:32:01.361Z,51.17
2018-05-23T15:34:30.696Z,51.26
2018-05-23T15:36:59.361Z,52.03
2018-05-23T15:39:28.408Z,52.62
2018-05-23T15:41:57.269Z,52.56
2018-05-23T15:44:26.182Z,52.31
2018-05-23T15:46:54.946Z,52.18
2018-05-23T15:49:23.739Z,52.11
2018-05-23T15:51:52.420Z,52.28
2018-05-23T15:54:21.182Z,52.50
2018-05-23T15:56:50.479Z,52.60
2018-05-23T16:01:55.456Z,52.19
2018-05-23T16:04:24.204Z,52.94
2018-05-23T16:06:52.919Z,52.25
2018-05-23T16:09:22.053Z,51.34
2018-05-23T16:11:50.911Z,51.30
2018-05-23T16:14:19.700Z,51.58
2018-05-23T16:16:49.511Z,51.67
2018-05-23T16:19:18.210Z,51.67
2018-05-23T16:21:47.021Z,51.61
2018-05-23T16:24:15.921Z,51.75
2018-05-23T16:26:44.674Z,52.54
2018-05-23T16:29:14.674Z,52.92
2018-05-23T16:31:43.461Z,53.34
2018-05-23T16:34:12.185Z,53.91
2018-05-23T16:36:41.139Z,53.55
2018-05-23T16:39:09.928Z,53.78
2018-05-23T16:41:39.840Z,54.00
2018-05-23T16:44:08.736Z,54.22
2018-05-23T16:46:37.518Z,54.22
2018-05-23T16:49:06.459Z,54.45
2018-05-23T16:51:35.194Z,54.50
2018-05-23T16:54:03.982Z,54.89
2018-05-23T16:56:32.773Z,54.92
2018-05-23T16:59:01.565Z,55.03
2018-05-23T17:01:30.352Z,55.03
2018-05-23T17:03:59.608Z,55.11
2018-05-23T17:06:28.793Z,55.25
2018-05-23T17:08:59.225Z,54.82
2018-05-23T17:11:28.313Z,55.03
2018-05-23T17:13:57.047Z,49.58
2018-05-23T17:16:25.938Z,46.65
2018-05-23T17:18:54.737Z,45.32
2018-05-23T17:21:25.520Z,44.86
2018-05-23T17:23:54.251Z,43.93
2018-05-23T17:26:23.236Z,44.32
2018-05-23T17:28:52.130Z,44.05
2018-05-23T17:31:20.928Z,43.32
2018-05-23T17:33:49.702Z,43.07
2018-05-23T17:36:19.103Z,42.88
2018-05-23T17:38:47.793Z,42.18
2018-05-23T17:41:16.573Z,42.30
2018-05-23T17:43:45.309Z,42.72
2018-05-23T17:46:13.947Z,42.96
2018-05-23T17:48:42.693Z,42.87
2018-05-23T17:51:11.315Z,43.24
2018-05-23T17:53:40.215Z,43.37
2018-05-23T17:56:09.090Z,46.19
2018-05-23T17:58:37.860Z,53.32
2018-05-23T18:01:06.879Z,60.86
2018-05-23T18:03:35.564Z,65.32
2018-05-23T18:06:04.437Z,76.90
2018-05-23T18:08:33.145Z,79.09
2018-05-23T18:11:02.026Z,80.05
2018-05-23T18:13:30.885Z,82.79
2018-05-23T18:15:59.705Z,83.76
2018-05-23T18:18:28.492Z,83.41
2018-05-23T18:20:57.274Z,86.26
2018-05-23T18:23:26.728Z,87.63
2018-05-23T18:25:55.467Z,88.56
2018-05-23T18:28:24.147Z,88.49
2018-05-23T18:30:52.839Z,88.48
2018-05-23T18:33:21.631Z,88.84
2018-05-23T18:35:50.306Z,88.56
2018-05-23T18:38:19.113Z,89.59
2018-05-23T18:40:47.945Z,88.05
2018-05-23T18:43:16.851Z,87.97
2018-05-23T18:45:45.563Z,86.23
2018-05-23T18:48:14.462Z,86.66
2018-05-23T18:50:45.341Z,87.37
2018-05-23T18:53:14.181Z,87.72
2018-05-23T18:55:43.068Z,88.24
2018-05-23T18:58:11.844Z,88.50
2018-05-23T19:00:40.637Z,88.51
2018-05-23T19:03:09.374Z,89.00
2018-05-23T19:05:38.214Z,90.17
2018-05-23T19:08:07.431Z,89.66
2018-05-23T19:10:36.308Z,88.55
2018-05-23T19:13:06.010Z,88.40
2018-05-23T19:15:34.902Z,89.44
2018-05-23T19:18:03.795Z,90.15
2018-05-23T19:20:32.562Z,90.16
2018-05-23T19:23:01.262Z,89.88
2018-05-23T19:25:30.052Z,90.60
2018-05-23T19:27:58.986Z,90.29
2018-05-23T19:30:27.832Z,89.53
2018-05-23T19:32:56.671Z,89.88
2018-05-23T19:35:25.609Z,90.55
2018-05-23T19:37:54.305Z,90.19
2018-05-23T19:40:23.288Z,90.41
2018-05-23T19:42:52.083Z,89.33
2018-05-23T19:45:20.968Z,89.44
2018-05-23T19:47:49.726Z,89.32
2018-05-23T19:50:18.646Z,89.71
2018-05-23T19:52:47.750Z,89.18
2018-05-23T19:55:16.424Z,87.64
2018-05-23T19:57:45.105Z,88.44
2018-05-23T20:00:14.007Z,88.50
2018-05-23T20:02:42.786Z,88.29
2018-05-23T20:05:11.571Z,89.22
2018-05-23T20:07:40.568Z,90.58
2018-05-23T20:10:09.476Z,91.07
2018-05-23T20:12:39.451Z,91.36
2018-05-23T20:15:08.731Z,91.19
2018-05-23T20:17:37.659Z,90.86
2018-05-23T20:20:06.498Z,91.46
2018-05-23T20:22:35.236Z,91.49
2018-05-23T20:25:04.328Z,91.01
2018-05-23T20:27:33.036Z,89.95
2018-05-23T20:30:01.806Z,88.02
2018-05-23T20:32:30.829Z,88.84
2018-05-23T20:34:59.847Z,87.86
2018-05-23T20:37:28.781Z,86.24
2018-05-23T20:39:57.556Z,86.47
2018-05-23T20:42:26.426Z,87.83
2018-05-23T20:44:55.139Z,88.09
2018-05-23T20:47:23.928Z,87.81
2018-05-23T20:49:52.580Z,87.86
2018-05-23T20:52:21.915Z,87.93
2018-05-23T20:54:50.596Z,88.29
2018-05-23T20:57:19.284Z,88.35
2018-05-23T20:59:48.071Z,88.71
2018-05-23T21:02:17.471Z,89.49
2018-05-23T21:04:47.180Z,89.77
2018-05-23T21:07:15.971Z,89.68
2018-05-23T21:09:44.708Z,90.38
2018-05-23T21:12:13.547Z,90.90
2018-05-23T21:14:42.434Z,91.10
2018-05-23T21:17:12.015Z,90.82
2018-05-23T21:19:40.932Z,90.35
2018-05-23T21:22:09.794Z,91.18
2018-05-23T21:24:38.628Z,91.62
2018-05-23T21:27:07.327Z,92.24
2018-05-23T21:29:36.282Z,92.15
2018-05-23T21:32:04.961Z,92.21
2018-05-23T21:34:34.731Z,92.62
2018-05-23T21:37:03.464Z,92.61
2018-05-23T21:39:32.254Z,92.63
2018-05-23T21:42:01.576Z,92.48
2018-05-23T21:44:30.440Z,92.14
2018-05-23T21:46:59.186Z,92.30
2018-05-23T21:49:30.132Z,92.25
2018-05-23T21:51:58.850Z,92.38
2018-05-23T21:54:27.646Z,92.68
2018-05-23T21:56:56.632Z,92.32
2018-05-23T21:59:25.431Z,92.12
2018-05-23T22:01:54.412Z,90.59
2018-05-23T22:04:23.100Z,91.53
2018-05-23T22:06:51.784Z,91.77
2018-05-23T22:09:20.365Z,91.72
2018-05-23T22:11:49.972Z,91.95
2018-05-23T22:14:18.759Z,92.27
2018-05-23T22:16:47.545Z,91.87
2018-05-23T22:19:16.135Z,92.57
2018-05-23T22:21:44.914Z,92.27
2018-05-23T22:24:13.804Z,92.40
2018-05-23T22:26:42.498Z,92.49
2018-05-23T22:29:11.669Z,92.35
2018-05-23T22:31:40.360Z,92.61
2018-05-23T22:34:09.161Z,92.45
2018-05-23T22:36:37.864Z,92.54
2018-05-23T22:39:06.531Z,92.47
2018-05-23T22:41:35.219Z,92.11
2018-05-23T22:44:04.247Z,91.90
2018-05-23T22:46:33.096Z,91.80
2018-05-23T22:49:01.901Z,91.90
2018-05-23T22:51:30.567Z,91.77
2018-05-23T22:53:59.357Z,91.94
2018-05-23T22:56:28.150Z,91.52
2018-05-23T22:58:57.038Z,91.47
2018-05-23T23:01:25.729Z,91.42
2018-05-23T23:03:54.459Z,91.37
2018-05-23T23:06:23.085Z,91.25
2018-05-23T23:08:52.048Z,91.51
2018-05-23T23:11:20.763Z,91.55
2018-05-23T23:13:49.451Z,91.62
2018-05-23T23:16:18.248Z,91.69
2018-05-23T23:18:47.234Z,91.32
2018-05-23T23:21:16.016Z,91.32
2018-05-23T23:23:45.011Z,91.20
2018-05-23T23:26:13.860Z,90.78
2018-05-23T23:28:42.788Z,90.42
2018-05-23T23:31:12.295Z,90.44
2018-05-23T23:33:40.885Z,90.35
2018-05-23T23:36:09.481Z,90.04
2018-05-23T23:38:38.147Z,89.04
2018-05-23T23:41:06.933Z,89.23
2018-05-23T23:43:35.825Z,89.03
2018-05-23T23:46:19.593Z,89.70
2018-05-23T23:48:48.325Z,90.21
2018-05-23T23:51:17.983Z,89.79
2018-05-23T23:53:46.773Z,89.68
2018-05-23T23:56:15.501Z,89.24
2018-05-23T23:58:44.193Z,89.46
